sensor_id;sensor_type;location;lat;lon;timestamp;pressure;altitude;pressure_sealevel;temperature;humidity
6668;BME280;3370;47.712;9.082;2022-10-16T00:01:27;97050.81;;;12.21;100.00
6668;BME280;3370;47.712;9.082;2022-10-16T00:03:54;97045.59;;;12.23;100.00
6668;BME280;3370;47.712;9.082;2022-10-16T00:06:22;97038.00;;;12.20;100.00
6668;BME280;3370;47.712;9.082;2022-10-16T00:08:49;97034.59;;;12.19;100.00
6668;BME280;3370;47.712;9.082;2022-10-16T00:11:22;97028.53;;;12.20;100.00
6668;BME280;3370;47.712;9.082;2022-10-16T00:13:51;97030.44;;;12.17;100.00
6668;BME280;3370;47.712;9.082;2022-10-16T00:16:18;97035.00;;;12.12;100.00
6668;BME280;3370;47.712;9.082;2022-10-16T00:18:44;97030.59;;;12.14;100.00
6668;BME280;3370;47.712;9.082;2022-10-16T00:21:18;97030.59;;;12.14;100.00
6668;BME280;3370;47.712;9.082;2022-10-16T00:23:44;97031.59;;;12.11;100.00
6668;BME280;3370;47.712;9.082;2022-10-16T00:26:16;97023.75;;;12.13;100.00
6668;BME280;3370;47.712;9.082;2022-10-16T00:28:45;97031.47;;;12.30;100.00
6668;BME280;3370;47.712;9.082;2022-10-16T00:31:11;97023.22;;;12.23;100.00
6668;BME280;3370;47.712;9.082;2022-10-16T00:33:39;97027.13;;;12.31;100.00
6668;BME280;3370;47.712;9.082;2022-10-16T00:36:09;97024.81;;;12.26;100.00
6668;BME280;3370;47.712;9.082;2022-10-16T00:38:35;97032.22;;;12.32;100.00
6668;BME280;3370;47.712;9.082;2022-10-16T00:41:03;97030.88;;;12.25;100.00
6668;BME280;3370;47.712;9.082;2022-10-16T00:43:49;97029.38;;;12.21;100.00
6668;BME280;3370;47.712;9.082;2022-10-16T00:46:29;97027.88;;;12.17;100.00
6668;BME280;3370;47.712;9.082;2022-10-16T00:51:52;97031.19;;;12.19;100.00
6668;BME280;3370;47.712;9.082;2022-10-16T00:54:31;97029.63;;;12.32;100.00
6668;BME280;3370;47.712;9.082;2022-10-16T00:57:01;97031.72;;;12.25;100.00
6668;BME280;3370;47.712;9.082;2022-10-16T00:59:35;97034.53;;;12.21;100.00
6668;BME280;3370;47.712;9.082;2022-10-16T01:02:05;97033.22;;;12.30;100.00
6668;BME280;3370;47.712;9.082;2022-10-16T01:04:37;97037.47;;;12.46;100.00
6668;BME280;3370;47.712;9.082;2022-10-16T01:12:41;97026.47;;;12.27;100.00
6668;BME280;3370;47.712;9.082;2022-10-16T01:18:13;97043.75;;;12.25;100.00
6668;BME280;3370;47.712;9.082;2022-10-16T01:21:05;97048.91;;;12.25;100.00
6668;BME280;3370;47.712;9.082;2022-10-16T01:27:12;97038.13;;;12.34;100.00
6668;BME280;3370;47.712;9.082;2022-10-16T01:29:52;97043.13;;;12.37;100.00
6668;BME280;3370;47.712;9.082;2022-10-16T01:32:36;97043.28;;;12.34;100.00
6668;BME280;3370;47.712;9.082;2022-10-16T01:35:20;97050.72;;;12.40;100.00
6668;BME280;3370;47.712;9.082;2022-10-16T01:38:01;97058.56;;;12.55;100.00
6668;BME280;3370;47.712;9.082;2022-10-16T01:40:31;97053.97;;;12.60;100.00
6668;BME280;3370;47.712;9.082;2022-10-16T01:43:06;97055.38;;;12.50;100.00
6668;BME280;3370;47.712;9.082;2022-10-16T01:45:34;97052.94;;;12.46;100.00
6668;BME280;3370;47.712;9.082;2022-10-16T01:48:02;97059.94;;;12.44;100.00
6668;BME280;3370;47.712;9.082;2022-10-16T01:50:34;97064.69;;;12.52;100.00
6668;BME280;3370;47.712;9.082;2022-10-16T01:53:02;97064.75;;;12.51;100.00
6668;BME280;3370;47.712;9.082;2022-10-16T01:55:35;97061.44;;;12.49;100.00
6668;BME280;3370;47.712;9.082;2022-10-16T01:58:02;97063.28;;;12.46;100.00
6668;BME280;3370;47.712;9.082;2022-10-16T02:00:30;97056.47;;;12.45;100.00
6668;BME280;3370;47.712;9.082;2022-10-16T02:02:57;97067.53;;;12.48;100.00
6668;BME280;3370;47.712;9.082;2022-10-16T02:05:37;97057.97;;;12.50;100.00
6668;BME280;3370;47.712;9.082;2022-10-16T02:08:05;97049.28;;;12.51;100.00
6668;BME280;3370;47.712;9.082;2022-10-16T02:10:32;97039.66;;;12.54;100.00
6668;BME280;3370;47.712;9.082;2022-10-16T02:13:08;97053.81;;;12.63;100.00
6668;BME280;3370;47.712;9.082;2022-10-16T02:15:35;97060.28;;;12.54;100.00
6668;BME280;3370;47.712;9.082;2022-10-16T02:18:04;97065.91;;;12.78;100.00
6668;BME280;3370;47.712;9.082;2022-10-16T02:21:01;97064.63;;;12.70;100.00
6668;BME280;3370;47.712;9.082;2022-10-16T02:24:02;97049.81;;;12.57;100.00
6668;BME280;3370;47.712;9.082;2022-10-16T02:26:54;97039.66;;;12.54;100.00
6668;BME280;3370;47.712;9.082;2022-10-16T02:29:26;97062.84;;;12.54;100.00
6668;BME280;3370;47.712;9.082;2022-10-16T02:31:58;97062.97;;;12.53;100.00
6668;BME280;3370;47.712;9.082;2022-10-16T02:34:26;97060.88;;;12.59;100.00
6668;BME280;3370;47.712;9.082;2022-10-16T02:36:55;97059.31;;;12.57;100.00
6668;BME280;3370;47.712;9.082;2022-10-16T02:39:22;97061.44;;;12.49;100.00
6668;BME280;3370;47.712;9.082;2022-10-16T02:41:48;97039.81;;;12.51;100.00
6668;BME280;3370;47.712;9.082;2022-10-16T02:44:14;97037.00;;;12.56;100.00
6668;BME280;3370;47.712;9.082;2022-10-16T02:46:40;97043.06;;;12.55;100.00
6668;BME280;3370;47.712;9.082;2022-10-16T02:49:06;97063.28;;;12.46;100.00
6668;BME280;3370;47.712;9.082;2022-10-16T02:51:32;97069.19;;;12.49;100.00
6668;BME280;3370;47.712;9.082;2022-10-16T02:53:58;97077.09;;;12.45;100.00
6668;BME280;3370;47.712;9.082;2022-10-16T02:56:23;97078.06;;;12.43;100.00
6668;BME280;3370;47.712;9.082;2022-10-16T02:58:49;97060.84;;;12.43;100.00
6668;BME280;3370;47.712;9.082;2022-10-16T03:01:15;97053.09;;;12.43;100.00
6668;BME280;3370;47.712;9.082;2022-10-16T03:03:42;97052.13;;;12.46;100.00
6668;BME280;3370;47.712;9.082;2022-10-16T03:06:09;97042.91;;;12.58;100.00
6668;BME280;3370;47.712;9.082;2022-10-16T03:08:35;97033.66;;;12.54;100.00
6668;BME280;3370;47.712;9.082;2022-10-16T03:11:00;97034.34;;;12.57;100.00
6668;BME280;3370;47.712;9.082;2022-10-16T03:13:26;97029.16;;;12.57;100.00
6668;BME280;3370;47.712;9.082;2022-10-16T03:15:52;97038.91;;;12.52;100.00
6668;BME280;3370;47.712;9.082;2022-10-16T03:18:18;97052.28;;;12.43;100.00
6668;BME280;3370;47.712;9.082;2022-10-16T03:20:44;97048.28;;;12.37;100.00
6668;BME280;3370;47.712;9.082;2022-10-16T03:23:10;97057.97;;;12.50;100.00
6668;BME280;3370;47.712;9.082;2022-10-16T03:25:36;97059.31;;;12.57;100.00
6668;BME280;3370;47.712;9.082;2022-10-16T03:28:01;97055.63;;;12.61;100.00
6668;BME280;3370;47.712;9.082;2022-10-16T03:30:28;97064.94;;;12.48;100.00
6668;BME280;3370;47.712;9.082;2022-10-16T03:32:54;97070.41;;;12.41;100.00
6668;BME280;3370;47.712;9.082;2022-10-16T03:35:23;97066.31;;;12.37;100.00
6668;BME280;3370;47.712;9.082;2022-10-16T03:37:50;97064.91;;;12.32;100.00
6668;BME280;3370;47.712;9.082;2022-10-16T03:40:16;97069.06;;;12.34;100.00
6668;BME280;3370;47.712;9.082;2022-10-16T03:42:43;97069.06;;;12.34;100.00
6668;BME280;3370;47.712;9.082;2022-10-16T03:45:10;97078.78;;;12.29;100.00
6668;BME280;3370;47.712;9.082;2022-10-16T03:47:36;97079.69;;;12.28;100.00
6668;BME280;3370;47.712;9.082;2022-10-16T03:50:04;97084.78;;;12.30;100.00
6668;BME280;3370;47.712;9.082;2022-10-16T03:52:30;97091.66;;;12.29;100.00
6668;BME280;3370;47.712;9.082;2022-10-16T03:54:55;97087.28;;;12.31;100.00
6668;BME280;3370;47.712;9.082;2022-10-16T03:57:21;97086.22;;;12.35;100.00
6668;BME280;3370;47.712;9.082;2022-10-16T03:59:47;97092.53;;;12.30;100.00
6668;BME280;3370;47.712;9.082;2022-10-16T04:02:13;97100.19;;;12.31;100.00
6668;BME280;3370;47.712;9.082;2022-10-16T04:04:39;97091.50;;;12.32;100.00
6668;BME280;3370;47.712;9.082;2022-10-16T04:07:05;97087.66;;;12.23;100.00
6668;BME280;3370;47.712;9.082;2022-10-16T04:09:30;97093.75;;;12.22;100.00
6668;BME280;3370;47.712;9.082;2022-10-16T04:11:56;97097.16;;;12.23;100.00
6668;BME280;3370;47.712;9.082;2022-10-16T04:14:23;97089.41;;;12.23;100.00
6668;BME280;3370;47.712;9.082;2022-10-16T04:16:49;97086.00;;;12.22;100.00
6668;BME280;3370;47.712;9.082;2022-10-16T04:19:15;97097.91;;;12.25;100.00
6668;BME280;3370;47.712;9.082;2022-10-16T04:21:41;97095.03;;;12.31;100.00
6668;BME280;3370;47.712;9.082;2022-10-16T04:24:06;97095.03;;;12.31;100.00
6668;BME280;3370;47.712;9.082;2022-10-16T04:26:32;97096.53;;;12.35;100.00
6668;BME280;3370;47.712;9.082;2022-10-16T04:28:59;97088.53;;;12.40;100.00
6668;BME280;3370;47.712;9.082;2022-10-16T04:31:24;97091.91;;;12.42;100.00
6668;BME280;3370;47.712;9.082;2022-10-16T04:33:50;97095.03;;;12.47;100.00
6668;BME280;3370;47.712;9.082;2022-10-16T04:36:16;97089.50;;;12.55;100.00
6668;BME280;3370;47.712;9.082;2022-10-16T04:38:42;97099.91;;;12.53;100.00
6668;BME280;3370;47.712;9.082;2022-10-16T04:41:08;97098.47;;;12.48;100.00
6668;BME280;3370;47.712;9.082;2022-10-16T04:43:34;97091.22;;;12.38;100.00
6668;BME280;3370;47.712;9.082;2022-10-16T04:46:00;97106.22;;;12.48;100.00
6668;BME280;3370;47.712;9.082;2022-10-16T04:48:27;97109.38;;;12.53;100.00
6668;BME280;3370;47.712;9.082;2022-10-16T04:50:53;97112.88;;;12.52;100.00
6668;BME280;3370;47.712;9.082;2022-10-16T04:53:18;97110.91;;;12.39;100.00
6668;BME280;3370;47.712;9.082;2022-10-16T04:55:44;97111.50;;;12.44;100.00
6668;BME280;3370;47.712;9.082;2022-10-16T04:58:10;97114.03;;;12.46;100.00
6668;BME280;3370;47.712;9.082;2022-10-16T05:00:36;97117.50;;;12.45;100.00
6668;BME280;3370;47.712;9.082;2022-10-16T05:03:02;97122.16;;;12.38;100.00
6668;BME280;3370;47.712;9.082;2022-10-16T05:05:31;97119.06;;;12.32;100.00
6668;BME280;3370;47.712;9.082;2022-10-16T05:07:57;97116.81;;;12.41;100.00
6668;BME280;3370;47.712;9.082;2022-10-16T05:10:23;97124.06;;;12.35;100.00
6668;BME280;3370;47.712;9.082;2022-10-16T05:12:48;97122.31;;;12.35;100.00
6668;BME280;3370;47.712;9.082;2022-10-16T05:15:15;97117.97;;;12.36;100.00
6668;BME280;3370;47.712;9.082;2022-10-16T05:17:41;97118.22;;;12.31;100.00
6668;BME280;3370;47.712;9.082;2022-10-16T05:20:07;97115.94;;;12.25;100.00
6668;BME280;3370;47.712;9.082;2022-10-16T05:22:33;97118.69;;;12.22;100.00
6668;BME280;3370;47.712;9.082;2022-10-16T05:24:59;97118.69;;;12.22;100.00
6668;BME280;3370;47.712;9.082;2022-10-16T05:27:25;97117.91;;;12.20;100.00
6668;BME280;3370;47.712;9.082;2022-10-16T05:29:51;97112.75;;;12.20;100.00
6668;BME280;3370;47.712;9.082;2022-10-16T05:32:18;97114.44;;;12.21;100.00
6668;BME280;3370;47.712;9.082;2022-10-16T05:34:44;97122.16;;;12.21;100.00
6668;BME280;3370;47.712;9.082;2022-10-16T05:37:11;97126.44;;;12.22;100.00
6668;BME280;3370;47.712;9.082;2022-10-16T05:39:38;97135.81;;;12.23;100.00
6668;BME280;3370;47.712;9.082;2022-10-16T05:42:05;97131.41;;;12.25;100.00
6668;BME280;3370;47.712;9.082;2022-10-16T05:44:30;97134.75;;;12.27;100.00
6668;BME280;3370;47.712;9.082;2022-10-16T05:46:56;97139.69;;;12.32;100.00
6668;BME280;3370;47.712;9.082;2022-10-16T05:49:22;97138.69;;;12.34;100.00
6668;BME280;3370;47.712;9.082;2022-10-16T05:51:48;97146.25;;;12.37;100.00
6668;BME280;3370;47.712;9.082;2022-10-16T05:54:14;97143.84;;;12.34;100.00
6668;BME280;3370;47.712;9.082;2022-10-16T05:56:40;97152.19;;;12.39;100.00
6668;BME280;3370;47.712;9.082;2022-10-16T05:59:06;97146.88;;;12.42;100.00
6668;BME280;3370;47.712;9.082;2022-10-16T06:01:32;97144.28;;;12.42;100.00
6668;BME280;3370;47.712;9.082;2022-10-16T06:03:58;97146.63;;;12.47;100.00
6668;BME280;3370;47.712;9.082;2022-10-16T06:06:26;97131.81;;;12.51;100.00
6668;BME280;3370;47.712;9.082;2022-10-16T06:08:54;97142.13;;;12.51;100.00
6668;BME280;3370;47.712;9.082;2022-10-16T06:11:30;97132.59;;;12.53;100.00
6668;BME280;3370;47.712;9.082;2022-10-16T06:13:58;97139.94;;;12.60;100.00
6668;BME280;3370;47.712;9.082;2022-10-16T06:16:28;97150.41;;;12.57;100.00
6668;BME280;3370;47.712;9.082;2022-10-16T06:18:55;97145.91;;;12.61;100.00
6668;BME280;3370;47.712;9.082;2022-10-16T06:21:27;97146.53;;;12.66;100.00
6668;BME280;3370;47.712;9.082;2022-10-16T06:23:54;97152.59;;;12.65;100.00
6668;BME280;3370;47.712;9.082;2022-10-16T06:26:23;97155.84;;;12.69;100.00
6668;BME280;3370;47.712;9.082;2022-10-16T06:28:50;97146.19;;;12.72;100.00
6668;BME280;3370;47.712;9.082;2022-10-16T06:31:17;97163.69;;;12.83;100.00
6668;BME280;3370;47.712;9.082;2022-10-16T06:33:43;97152.56;;;12.82;100.00
6668;BME280;3370;47.712;9.082;2022-10-16T06:36:16;97157.56;;;12.85;100.00
6668;BME280;3370;47.712;9.082;2022-10-16T06:38:43;97170.47;;;12.85;100.00
6668;BME280;3370;47.712;9.082;2022-10-16T06:41:14;97176.44;;;12.86;100.00
6668;BME280;3370;47.712;9.082;2022-10-16T06:43:40;97179.84;;;12.87;100.00
6668;BME280;3370;47.712;9.082;2022-10-16T06:46:09;97173.88;;;12.86;100.00
6668;BME280;3370;47.712;9.082;2022-10-16T06:48:36;97186.69;;;12.88;100.00
6668;BME280;3370;47.712;9.082;2022-10-16T06:51:14;97189.09;;;12.91;100.00
6668;BME280;3370;47.712;9.082;2022-10-16T06:53:44;97193.22;;;12.95;100.00
6668;BME280;3370;47.712;9.082;2022-10-16T06:56:14;97193.22;;;12.95;100.00
6668;BME280;3370;47.712;9.082;2022-10-16T06:58:41;97203.34;;;12.98;100.00
6668;BME280;3370;47.712;9.082;2022-10-16T07:01:07;97208.34;;;13.01;100.00
6668;BME280;3370;47.712;9.082;2022-10-16T07:03:39;97214.19;;;13.04;100.00
6668;BME280;3370;47.712;9.082;2022-10-16T07:06:08;97227.88;;;13.22;100.00
6668;BME280;3370;47.712;9.082;2022-10-16T07:08:36;97229.84;;;13.35;100.00
6668;BME280;3370;47.712;9.082;2022-10-16T07:11:05;97235.56;;;13.24;100.00
6668;BME280;3370;47.712;9.082;2022-10-16T07:13:38;97232.94;;;13.08;100.00
6668;BME280;3370;47.712;9.082;2022-10-16T07:18:39;97227.19;;;13.03;100.00
6668;BME280;3370;47.712;9.082;2022-10-16T07:21:07;97233.63;;;13.12;100.00
6668;BME280;3370;47.712;9.082;2022-10-16T07:23:34;97235.13;;;13.16;100.00
6668;BME280;3370;47.712;9.082;2022-10-16T07:26:00;97237.03;;;13.12;100.00
6668;BME280;3370;47.712;9.082;2022-10-16T07:28:27;97238.38;;;13.19;100.00
6668;BME280;3370;47.712;9.082;2022-10-16T07:30:53;97240.19;;;13.17;100.00
6668;BME280;3370;47.712;9.082;2022-10-16T07:33:19;97243.25;;;13.08;100.00
6668;BME280;3370;47.712;9.082;2022-10-16T07:35:52;97235.56;;;13.24;100.00
6668;BME280;3370;47.712;9.082;2022-10-16T07:38:19;97235.28;;;13.29;100.00
6668;BME280;3370;47.712;9.082;2022-10-16T07:40:46;97239.25;;;13.36;100.00
6668;BME280;3370;47.712;9.082;2022-10-16T07:43:13;97252.28;;;13.50;100.00
6668;BME280;3370;47.712;9.082;2022-10-16T07:45:48;97258.28;;;13.67;100.00
6668;BME280;3370;47.712;9.082;2022-10-16T07:48:16;97260.78;;;13.68;100.00
6668;BME280;3370;47.712;9.082;2022-10-16T07:50:42;97268.78;;;13.79;100.00
6668;BME280;3370;47.712;9.082;2022-10-16T07:53:08;97272.38;;;13.77;100.00
6668;BME280;3370;47.712;9.082;2022-10-16T07:55:34;97271.72;;;13.89;100.00
6668;BME280;3370;47.712;9.082;2022-10-16T07:58:00;97260.28;;;13.93;100.00
6668;BME280;3370;47.712;9.082;2022-10-16T08:00:26;97266.09;;;14.13;100.00
6668;BME280;3370;47.712;9.082;2022-10-16T08:02:52;97270.66;;;14.24;100.00
6668;BME280;3370;47.712;9.082;2022-10-16T08:05:18;97275.44;;;14.15;100.00
6668;BME280;3370;47.712;9.082;2022-10-16T08:07:49;97274.75;;;14.12;100.00
6668;BME280;3370;47.712;9.082;2022-10-16T08:10:20;97272.88;;;13.99;100.00
6668;BME280;3370;47.712;9.082;2022-10-16T08:12:46;97275.88;;;14.08;100.00
6668;BME280;3370;47.712;9.082;2022-10-16T08:15:12;97265.94;;;14.00;100.00
6668;BME280;3370;47.712;9.082;2022-10-16T08:17:38;97265.13;;;13.99;100.00
6668;BME280;3370;47.712;9.082;2022-10-16T08:20:05;97276.03;;;14.05;100.00
6668;BME280;3370;47.712;9.082;2022-10-16T08:22:31;97273.03;;;13.96;100.00
6668;BME280;3370;47.712;9.082;2022-10-16T08:24:57;97292.47;;;13.72;100.00
6668;BME280;3370;47.712;9.082;2022-10-16T08:27:23;97302.47;;;13.62;100.00
6668;BME280;3370;47.712;9.082;2022-10-16T08:29:49;97301.63;;;13.61;100.00
6668;BME280;3370;47.712;9.082;2022-10-16T08:32:15;97307.66;;;13.78;100.00
6668;BME280;3370;47.712;9.082;2022-10-16T08:34:41;97308.63;;;13.75;100.00
6668;BME280;3370;47.712;9.082;2022-10-16T08:37:07;97304.56;;;13.71;100.00
6668;BME280;3370;47.712;9.082;2022-10-16T08:39:36;97321.47;;;13.61;100.00
6668;BME280;3370;47.712;9.082;2022-10-16T08:42:16;97321.81;;;13.71;100.00
6668;BME280;3370;47.712;9.082;2022-10-16T08:47:55;97330.31;;;14.05;100.00
6668;BME280;3370;47.712;9.082;2022-10-16T08:50:29;97333.09;;;14.02;100.00
6668;BME280;3370;47.712;9.082;2022-10-16T08:52:56;97332.81;;;14.22;100.00
6668;BME280;3370;47.712;9.082;2022-10-16T08:58:20;97320.59;;;14.56;100.00
6668;BME280;3370;47.712;9.082;2022-10-16T09:00:54;97324.47;;;14.79;100.00
6668;BME280;3370;47.712;9.082;2022-10-16T09:06:41;97330.94;;;15.17;100.00
6668;BME280;3370;47.712;9.082;2022-10-16T09:12:15;97331.09;;;15.13;100.00
6668;BME280;3370;47.712;9.082;2022-10-16T09:14:47;97333.16;;;15.08;100.00
6668;BME280;3370;47.712;9.082;2022-10-16T09:17:32;97329.47;;;15.41;100.00
6668;BME280;3370;47.712;9.082;2022-10-16T09:23:27;97337.53;;;15.37;100.00
6668;BME280;3370;47.712;9.082;2022-10-16T09:25:54;97334.53;;;15.57;100.00
6668;BME280;3370;47.712;9.082;2022-10-16T09:28:21;97339.09;;;15.68;100.00
6668;BME280;3370;47.712;9.082;2022-10-16T09:30:47;97347.50;;;15.71;100.00
6668;BME280;3370;47.712;9.082;2022-10-16T09:33:23;97347.50;;;15.71;100.00
6668;BME280;3370;47.712;9.082;2022-10-16T09:35:55;97353.16;;;15.49;100.00
6668;BME280;3370;47.712;9.082;2022-10-16T09:38:35;97353.13;;;15.21;100.00
6668;BME280;3370;47.712;9.082;2022-10-16T09:41:16;97353.44;;;15.30;100.00
6668;BME280;3370;47.712;9.082;2022-10-16T09:43:58;97346.75;;;15.26;100.00
6668;BME280;3370;47.712;9.082;2022-10-16T09:46:29;97347.16;;;15.49;100.00
6668;BME280;3370;47.712;9.082;2022-10-16T09:49:02;97348.09;;;15.77;100.00
6668;BME280;3370;47.712;9.082;2022-10-16T09:51:36;97341.50;;;15.85;100.00
6668;BME280;3370;47.712;9.082;2022-10-16T09:54:22;97351.63;;;15.76;100.00
6668;BME280;3370;47.712;9.082;2022-10-16T09:56:49;97352.03;;;15.68;100.00
6668;BME280;3370;47.712;9.082;2022-10-16T09:59:19;97345.94;;;15.69;100.00
6668;BME280;3370;47.712;9.082;2022-10-16T10:01:50;97344.69;;;15.76;100.00
6668;BME280;3370;47.712;9.082;2022-10-16T10:04:19;97337.63;;;15.93;100.00
6668;BME280;3370;47.712;9.082;2022-10-16T10:06:52;97339.31;;;16.21;100.00
6668;BME280;3370;47.712;9.082;2022-10-16T10:09:40;97338.88;;;16.14;100.00
6668;BME280;3370;47.712;9.082;2022-10-16T10:12:23;97335.91;;;16.06;100.00
6668;BME280;3370;47.712;9.082;2022-10-16T10:15:10;97330.13;;;16.15;100.00
6668;BME280;3370;47.712;9.082;2022-10-16T10:17:50;97333.28;;;16.47;100.00
6668;BME280;3370;47.712;9.082;2022-10-16T10:20:31;97336.81;;;16.74;97.65
6668;BME280;3370;47.712;9.082;2022-10-16T10:23:13;97338.31;;;17.03;98.27
6668;BME280;3370;47.712;9.082;2022-10-16T10:26:04;97340.63;;;16.95;95.30
6668;BME280;3370;47.712;9.082;2022-10-16T10:31:44;97329.81;;;17.27;94.54
6668;BME280;3370;47.712;9.082;2022-10-16T10:37:54;97322.91;;;17.77;93.98
6668;BME280;3370;47.712;9.082;2022-10-16T10:46:32;97315.94;;;18.28;88.79
6668;BME280;3370;47.712;9.082;2022-10-16T10:49:09;97316.34;;;18.70;90.57
6668;BME280;3370;47.712;9.082;2022-10-16T11:06:06;97299.00;;;22.55;68.27
6668;BME280;3370;47.712;9.082;2022-10-16T11:09:13;97302.78;;;23.95;62.38
6668;BME280;3370;47.712;9.082;2022-10-16T11:11:52;97302.38;;;23.99;60.68
6668;BME280;3370;47.712;9.082;2022-10-16T11:17:50;97305.47;;;23.10;60.63
6668;BME280;3370;47.712;9.082;2022-10-16T11:20:32;97299.41;;;23.84;57.15
6668;BME280;3370;47.712;9.082;2022-10-16T11:23:40;97289.94;;;25.17;54.20
6668;BME280;3370;47.712;9.082;2022-10-16T11:26:23;97272.59;;;27.81;48.77
6668;BME280;3370;47.712;9.082;2022-10-16T11:28:56;97277.28;;;28.79;45.96
6668;BME280;3370;47.712;9.082;2022-10-16T11:31:45;97278.84;;;29.41;44.47
6668;BME280;3370;47.712;9.082;2022-10-16T11:37:07;97272.81;;;26.99;44.84
6668;BME280;3370;47.712;9.082;2022-10-16T11:39:35;97269.91;;;27.49;46.59
6668;BME280;3370;47.712;9.082;2022-10-16T11:42:13;97272.19;;;26.72;45.46
6668;BME280;3370;47.712;9.082;2022-10-16T11:45:02;97260.66;;;26.65;48.78
6668;BME280;3370;47.712;9.082;2022-10-16T11:47:42;97259.66;;;26.74;47.36
6668;BME280;3370;47.712;9.082;2022-10-16T11:50:40;97258.94;;;24.77;51.59
6668;BME280;3370;47.712;9.082;2022-10-16T11:56:28;97269.53;;;23.58;57.53
6668;BME280;3370;47.712;9.082;2022-10-16T11:59:08;97260.13;;;23.27;54.96
6668;BME280;3370;47.712;9.082;2022-10-16T12:01:48;97263.19;;;23.03;58.52
6668;BME280;3370;47.712;9.082;2022-10-16T12:04:44;97264.66;;;22.68;59.15
6668;BME280;3370;47.712;9.082;2022-10-16T12:07:22;97260.56;;;23.03;59.86
6668;BME280;3370;47.712;9.082;2022-10-16T12:09:50;97260.03;;;23.09;57.96
6668;BME280;3370;47.712;9.082;2022-10-16T12:17:46;97255.13;;;24.53;54.64
6668;BME280;3370;47.712;9.082;2022-10-16T12:25:43;97243.78;;;31.27;37.86
6668;BME280;3370;47.712;9.082;2022-10-16T12:28:22;97242.34;;;31.31;36.94
6668;BME280;3370;47.712;9.082;2022-10-16T12:31:09;97239.94;;;32.59;33.40
6668;BME280;3370;47.712;9.082;2022-10-16T12:33:37;97237.03;;;31.31;33.94
6668;BME280;3370;47.712;9.082;2022-10-16T12:36:16;97235.28;;;31.86;33.51
6668;BME280;3370;47.712;9.082;2022-10-16T12:38:53;97235.59;;;32.45;30.48
6668;BME280;3370;47.712;9.082;2022-10-16T12:41:29;97235.28;;;33.53;31.66
6668;BME280;3370;47.712;9.082;2022-10-16T12:43:55;97221.16;;;33.98;30.39
6668;BME280;3370;47.712;9.082;2022-10-16T12:46:41;97227.25;;;31.80;35.03
6668;BME280;3370;47.712;9.082;2022-10-16T12:51:40;97219.28;;;30.25;36.93
6668;BME280;3370;47.712;9.082;2022-10-16T12:54:20;97218.06;;;31.34;34.23
6668;BME280;3370;47.712;9.082;2022-10-16T13:00:04;97228.16;;;28.62;38.31
6668;BME280;3370;47.712;9.082;2022-10-16T13:09:30;97221.09;;;26.40;42.72
6668;BME280;3370;47.712;9.082;2022-10-16T13:20:16;97226.19;;;25.66;44.21
6668;BME280;3370;47.712;9.082;2022-10-16T13:23:02;97224.09;;;25.86;45.64
6668;BME280;3370;47.712;9.082;2022-10-16T13:26:20;97223.59;;;25.82;45.40
6668;BME280;3370;47.712;9.082;2022-10-16T13:28:49;97224.16;;;25.94;45.63
6668;BME280;3370;47.712;9.082;2022-10-16T13:31:21;97227.97;;;26.00;45.94
6668;BME280;3370;47.712;9.082;2022-10-16T13:33:52;97233.91;;;26.02;46.79
6668;BME280;3370;47.712;9.082;2022-10-16T13:36:34;97231.06;;;25.95;47.07
6668;BME280;3370;47.712;9.082;2022-10-16T13:41:37;97230.19;;;25.87;47.40
6668;BME280;3370;47.712;9.082;2022-10-16T13:44:03;97236.97;;;25.38;46.61
6668;BME280;3370;47.712;9.082;2022-10-16T13:46:29;97227.97;;;25.49;48.74
6668;BME280;3370;47.712;9.082;2022-10-16T13:49:04;97230.53;;;24.80;48.10
6668;BME280;3370;47.712;9.082;2022-10-16T13:51:32;97230.06;;;24.49;49.87
6668;BME280;3370;47.712;9.082;2022-10-16T13:53:58;97223.72;;;24.52;49.55
6668;BME280;3370;47.712;9.082;2022-10-16T13:56:30;97228.97;;;24.52;48.30
6668;BME280;3370;47.712;9.082;2022-10-16T13:59:06;97233.56;;;24.67;51.00
6668;BME280;3370;47.712;9.082;2022-10-16T14:01:42;97228.44;;;24.92;49.75
6668;BME280;3370;47.712;9.082;2022-10-16T14:04:11;97227.88;;;25.06;50.19
6668;BME280;3370;47.712;9.082;2022-10-16T14:06:45;97230.56;;;25.15;48.73
6668;BME280;3370;47.712;9.082;2022-10-16T14:09:29;97236.63;;;24.89;46.86
6668;BME280;3370;47.712;9.082;2022-10-16T14:12:01;97234.91;;;24.72;49.72
6668;BME280;3370;47.712;9.082;2022-10-16T14:14:43;97233.34;;;24.87;49.33
6668;BME280;3370;47.712;9.082;2022-10-16T14:17:27;97232.94;;;25.00;51.92
6668;BME280;3370;47.712;9.082;2022-10-16T14:19:57;97231.75;;;24.68;52.24
6668;BME280;3370;47.712;9.082;2022-10-16T14:22:35;97224.38;;;24.72;52.35
6668;BME280;3370;47.712;9.082;2022-10-16T14:25:27;97222.41;;;24.74;51.46
6668;BME280;3370;47.712;9.082;2022-10-16T14:30:57;97230.41;;;24.46;51.71
6668;BME280;3370;47.712;9.082;2022-10-16T14:36:06;97233.84;;;24.64;51.17
6668;BME280;3370;47.712;9.082;2022-10-16T14:38:42;97231.59;;;24.70;50.35
6668;BME280;3370;47.712;9.082;2022-10-16T14:41:13;97231.28;;;24.73;51.52
6668;BME280;3370;47.712;9.082;2022-10-16T14:43:42;97232.56;;;24.50;53.17
6668;BME280;3370;47.712;9.082;2022-10-16T14:46:17;97227.84;;;24.54;50.43
6668;BME280;3370;47.712;9.082;2022-10-16T14:48:46;97232.00;;;24.39;52.14
6668;BME280;3370;47.712;9.082;2022-10-16T14:51:18;97232.00;;;24.39;54.08
6668;BME280;3370;47.712;9.082;2022-10-16T14:53:45;97233.75;;;24.38;55.34
6668;BME280;3370;47.712;9.082;2022-10-16T14:56:25;97231.84;;;24.22;55.72
6668;BME280;3370;47.712;9.082;2022-10-16T14:58:55;97236.84;;;23.98;55.41
6668;BME280;3370;47.712;9.082;2022-10-16T15:01:21;97226.81;;;23.93;54.54
6668;BME280;3370;47.712;9.082;2022-10-16T15:03:53;97224.09;;;24.03;56.45
6668;BME280;3370;47.712;9.082;2022-10-16T15:06:59;97223.50;;;24.09;56.04
6668;BME280;3370;47.712;9.082;2022-10-16T15:09:43;97225.53;;;24.15;55.55
6668;BME280;3370;47.712;9.082;2022-10-16T15:12:30;97226.06;;;24.19;55.60
6668;BME280;3370;47.712;9.082;2022-10-16T15:15:34;97236.34;;;24.30;57.59
6668;BME280;3370;47.712;9.082;2022-10-16T15:18:24;97239.63;;;24.50;56.12
6668;BME280;3370;47.712;9.082;2022-10-16T15:21:04;97237.97;;;24.49;54.87
6668;BME280;3370;47.712;9.082;2022-10-16T15:23:33;97246.16;;;24.46;54.97
6668;BME280;3370;47.712;9.082;2022-10-16T15:26:10;97255.50;;;24.40;56.94
6668;BME280;3370;47.712;9.082;2022-10-16T15:28:45;97254.50;;;24.41;53.19